createdAt,value
2023-01-26T00:01:45.164Z,101989.40
2023-01-26T00:04:13.899Z,101991.40
2023-01-26T00:06:43.304Z,101988.40
2023-01-26T00:09:15.599Z,101988.60
2023-01-26T00:11:43.871Z,101982.20
2023-01-26T00:14:11.658Z,101981.40
2023-01-26T00:16:39.961Z,101976.80
2023-01-26T00:19:08.915Z,101978.80
2023-01-26T00:21:36.766Z,101982.00
2023-01-26T00:24:05.192Z,101987.60
2023-01-26T00:26:33.130Z,101986.00
2023-01-26T00:29:01.581Z,101984.20
2023-01-26T00:31:29.813Z,101984.80
2023-01-26T00:33:57.935Z,101984.80
2023-01-26T00:36:27.557Z,101982.80
2023-01-26T00:38:56.660Z,101978.00
2023-01-26T00:41:43.369Z,101975.20
2023-01-26T00:44:11.369Z,101976.80
2023-01-26T00:46:39.516Z,101981.80
2023-01-26T00:49:08.162Z,101988.60
2023-01-26T00:51:36.033Z,101985.00
2023-01-26T00:54:05.356Z,101988.80
2023-01-26T00:56:33.270Z,101987.80
2023-01-26T00:59:01.054Z,101973.80
2023-01-26T01:01:28.914Z,101982.80
2023-01-26T01:03:56.825Z,101981.00
2023-01-26T01:06:24.849Z,101982.60
2023-01-26T01:08:52.666Z,101981.20
2023-01-26T01:11:20.582Z,101981.80
2023-01-26T01:13:48.635Z,101980.80
2023-01-26T01:16:17.456Z,101972.00
2023-01-26T01:18:46.200Z,101978.20
2023-01-26T01:21:17.739Z,101981.20
2023-01-26T01:23:45.655Z,101981.00
2023-01-26T01:26:15.695Z,101981.60
2023-01-26T01:28:44.319Z,101983.80
2023-01-26T01:31:15.977Z,101979.00
2023-01-26T01:33:44.522Z,101978.00
2023-01-26T01:36:16.111Z,101987.20
2023-01-26T01:38:45.366Z,101980.00
2023-01-26T01:41:15.566Z,101981.20
2023-01-26T01:43:43.914Z,101975.40
2023-01-26T01:46:32.265Z,101981.80
2023-01-26T01:49:10.239Z,101981.20
2023-01-26T01:51:45.189Z,101986.20
2023-01-26T01:54:20.039Z,101984.00
2023-01-26T01:56:53.498Z,101979.60
2023-01-26T01:59:22.448Z,101987.60
2023-01-26T02:01:53.076Z,101986.00
2023-01-26T02:04:25.114Z,101980.20
2023-01-26T02:06:59.004Z,101982.80
2023-01-26T02:09:53.116Z,101986.40
2023-01-26T02:12:29.630Z,101988.40
2023-01-26T02:14:58.583Z,101985.20
2023-01-26T02:17:27.395Z,101988.00
2023-01-26T02:20:15.540Z,101991.00
2023-01-26T02:23:06.937Z,101994.20
2023-01-26T02:25:42.658Z,101993.80
2023-01-26T02:28:10.934Z,101993.40
2023-01-26T02:30:39.366Z,101989.00
2023-01-26T02:33:08.436Z,101986.00
2023-01-26T02:35:36.362Z,101989.60
2023-01-26T02:38:04.888Z,101999.60
2023-01-26T02:40:55.227Z,101997.20
2023-01-26T02:43:26.893Z,101995.80
2023-01-26T02:45:55.445Z,101990.40
2023-01-26T02:48:46.923Z,101991.00
2023-01-26T02:51:14.971Z,101993.20
2023-01-26T02:53:43.833Z,101992.00
2023-01-26T02:56:11.753Z,101995.00
2023-01-26T02:58:39.711Z,101993.80
2023-01-26T03:01:07.595Z,102007.40
2023-01-26T03:03:45.115Z,102005.60
2023-01-26T03:06:15.679Z,102010.80
2023-01-26T03:08:43.824Z,102006.80
2023-01-26T03:11:11.742Z,102008.80
2023-01-26T03:13:39.601Z,102010.00
2023-01-26T03:16:10.370Z,102015.80
2023-01-26T03:18:57.146Z,102012.60
2023-01-26T03:21:43.680Z,102009.00
2023-01-26T03:24:32.993Z,102010.20
2023-01-26T03:27:20.591Z,102007.80
2023-01-26T03:29:48.475Z,102004.80
2023-01-26T03:32:16.390Z,102017.40
2023-01-26T03:34:44.792Z,102015.40
2023-01-26T03:37:12.933Z,102016.60
2023-01-26T03:40:10.305Z,102007.20
2023-01-26T03:42:57.430Z,102006.00
2023-01-26T03:45:43.948Z,102010.40
2023-01-26T03:48:31.516Z,102007.40
2023-01-26T03:51:18.285Z,102010.80
2023-01-26T03:54:04.795Z,102010.20
2023-01-26T03:56:33.066Z,102007.20
2023-01-26T03:59:11.079Z,102008.80
2023-01-26T04:02:06.404Z,102009.40
2023-01-26T04:04:54.650Z,102011.00
2023-01-26T04:07:45.514Z,102013.40
2023-01-26T04:10:13.737Z,102006.20
2023-01-26T04:12:43.070Z,102010.60
2023-01-26T04:15:35.046Z,102012.40
2023-01-26T04:18:27.749Z,102017.40
2023-01-26T04:21:15.457Z,102020.40
2023-01-26T04:23:45.030Z,102019.40
2023-01-26T04:26:13.299Z,102022.40
2023-01-26T04:28:41.750Z,102021.20
2023-01-26T04:31:09.829Z,102029.40
2023-01-26T04:33:38.779Z,102032.00
2023-01-26T04:36:09.883Z,102033.60
2023-01-26T04:38:41.696Z,102041.20
2023-01-26T04:41:09.730Z,102042.20
2023-01-26T04:43:44.291Z,102034.40
2023-01-26T04:46:12.597Z,102038.00
2023-01-26T04:48:42.016Z,102031.20
2023-01-26T04:51:17.103Z,102034.20
2023-01-26T04:53:44.983Z,102027.40
2023-01-26T04:56:32.863Z,102031.40
2023-01-26T04:59:08.266Z,102032.80
2023-01-26T05:01:38.369Z,102032.80
2023-01-26T05:04:10.065Z,102038.80
2023-01-26T05:06:42.046Z,102035.60
2023-01-26T05:09:10.281Z,102034.60
2023-01-26T05:11:39.501Z,102034.80
2023-01-26T05:14:07.400Z,102037.60
2023-01-26T05:16:48.137Z,102046.00
2023-01-26T05:19:27.456Z,102039.20
2023-01-26T05:22:20.217Z,102043.20
2023-01-26T05:25:07.457Z,102038.80
2023-01-26T05:27:42.457Z,102028.80
2023-01-26T05:30:14.465Z,102027.60
2023-01-26T05:32:43.267Z,102034.00
2023-01-26T05:35:11.387Z,102033.40
2023-01-26T05:37:39.320Z,102031.00
2023-01-26T05:40:08.624Z,102041.20
2023-01-26T05:42:36.754Z,102037.60
2023-01-26T05:45:12.683Z,102034.60
2023-01-26T05:47:44.540Z,102028.80
2023-01-26T05:50:13.798Z,102031.60
2023-01-26T05:52:46.536Z,102035.80
2023-01-26T05:55:14.378Z,102034.00
2023-01-26T05:57:42.292Z,102034.60
2023-01-26T06:00:13.258Z,102033.00
2023-01-26T06:02:49.530Z,102044.80
2023-01-26T06:05:18.231Z,102043.20
2023-01-26T06:07:46.749Z,102047.00
2023-01-26T06:10:26.568Z,102056.00
2023-01-26T06:13:01.172Z,102061.20
2023-01-26T06:15:43.176Z,102061.40
2023-01-26T06:18:11.038Z,102058.20
2023-01-26T06:20:39.562Z,102058.40
2023-01-26T06:23:11.803Z,102065.40
2023-01-26T06:25:40.085Z,102062.40
2023-01-26T06:28:08.655Z,102063.20
2023-01-26T06:30:38.029Z,102080.00
2023-01-26T06:33:09.904Z,102081.00
2023-01-26T06:35:39.047Z,102082.00
2023-01-26T06:38:11.399Z,102081.80
2023-01-26T06:40:39.334Z,102079.60
2023-01-26T06:43:07.204Z,102082.60
2023-01-26T06:45:35.891Z,102092.20
2023-01-26T06:48:04.063Z,102088.20
2023-01-26T06:50:35.757Z,102089.40
2023-01-26T06:53:25.617Z,102092.00
2023-01-26T06:56:12.076Z,102100.00
2023-01-26T06:59:00.125Z,102109.80
2023-01-26T07:01:49.035Z,102108.00
2023-01-26T07:04:17.235Z,102103.80
2023-01-26T07:06:45.512Z,102104.00
2023-01-26T07:09:13.427Z,102108.60
2023-01-26T07:11:41.323Z,102106.80
2023-01-26T07:14:09.434Z,102114.60
2023-01-26T07:16:42.958Z,102117.20
2023-01-26T07:19:14.675Z,102114.20
2023-01-26T07:21:42.804Z,102105.40
2023-01-26T07:24:10.950Z,102102.20
2023-01-26T07:26:39.081Z,102106.20
2023-01-26T07:29:07.106Z,102115.80
2023-01-26T07:31:34.953Z,102122.00
2023-01-26T07:34:02.800Z,102129.20
2023-01-26T07:36:30.581Z,102134.60
2023-01-26T07:38:58.448Z,102139.20
2023-01-26T07:41:26.188Z,102139.60
2023-01-26T07:43:53.950Z,102136.60
2023-01-26T07:46:21.808Z,102129.60
2023-01-26T07:48:49.676Z,102123.80
2023-01-26T07:51:17.497Z,102124.00
2023-01-26T07:53:49.857Z,102137.60
2023-01-26T07:56:22.057Z,102141.40
2023-01-26T07:58:53.019Z,102143.80
2023-01-26T08:01:22.017Z,102139.60
2023-01-26T08:03:52.166Z,102121.00
2023-01-26T08:06:21.284Z,102125.60
2023-01-26T08:08:54.046Z,102123.60
2023-01-26T08:11:24.403Z,102128.00
2023-01-26T08:13:52.252Z,102120.20
2023-01-26T08:16:20.093Z,102112.20
2023-01-26T08:18:49.041Z,102115.00
2023-01-26T08:21:18.617Z,102123.40
2023-01-26T08:23:52.189Z,102116.80
2023-01-26T08:26:20.809Z,102118.80
2023-01-26T08:28:49.040Z,102122.60
2023-01-26T08:31:20.605Z,102128.80
2023-01-26T08:33:51.330Z,102124.20
2023-01-26T08:36:22.335Z,102112.60
2023-01-26T08:38:51.898Z,102111.00
2023-01-26T08:41:20.031Z,102118.00
2023-01-26T08:43:48.572Z,102126.40
2023-01-26T08:46:16.661Z,102125.80
2023-01-26T08:48:44.850Z,102134.60
2023-01-26T08:51:12.710Z,102133.60
2023-01-26T08:56:27.472Z,102138.40
2023-01-26T08:58:55.691Z,102140.00
2023-01-26T09:01:23.624Z,102134.40
2023-01-26T09:03:53.122Z,102142.20
2023-01-26T09:06:21.008Z,102143.00
2023-01-26T09:08:48.904Z,102146.60
2023-01-26T09:11:17.113Z,102154.00
2023-01-26T09:13:44.967Z,102151.00
2023-01-26T09:16:19.964Z,102152.80
2023-01-26T09:18:53.168Z,102160.00
2023-01-26T09:21:24.063Z,102167.60
2023-01-26T09:23:52.678Z,102167.60
2023-01-26T09:26:20.487Z,102170.60
2023-01-26T09:28:54.379Z,102169.40
2023-01-26T09:31:22.920Z,102165.20
2023-01-26T09:33:51.726Z,102169.00
2023-01-26T09:36:19.581Z,102171.80
2023-01-26T09:38:47.434Z,102177.80
2023-01-26T09:41:34.203Z,102171.80
2023-01-26T09:44:11.047Z,102173.40
2023-01-26T09:47:08.276Z,102174.60
2023-01-26T09:49:56.771Z,102176.00
2023-01-26T09:52:38.108Z,102177.40
2023-01-26T09:55:17.099Z,102177.00
2023-01-26T09:57:55.492Z,102168.80
2023-01-26T10:00:32.522Z,102172.20
2023-01-26T10:03:21.439Z,102171.00
2023-01-26T10:05:59.540Z,102163.80
2023-01-26T10:08:45.871Z,102167.80
2023-01-26T10:11:41.340Z,102168.40
2023-01-26T10:14:18.371Z,102170.00
2023-01-26T10:16:50.456Z,102177.60
2023-01-26T10:19:36.528Z,102178.20
2023-01-26T10:22:18.190Z,102176.60
2023-01-26T10:24:50.186Z,102183.40
2023-01-26T10:27:19.015Z,102188.20
2023-01-26T10:29:46.852Z,102192.40
2023-01-26T10:32:18.511Z,102198.80
2023-01-26T10:34:49.889Z,102197.80
2023-01-26T10:37:29.788Z,102205.60
2023-01-26T10:40:01.483Z,102199.40
2023-01-26T10:42:34.087Z,102208.00
2023-01-26T10:45:24.901Z,102201.60
2023-01-26T10:48:24.062Z,102197.20
2023-01-26T10:50:54.044Z,102186.40
2023-01-26T10:53:29.566Z,102185.60
2023-01-26T10:56:05.639Z,102193.40
2023-01-26T10:58:54.983Z,102197.20
2023-01-26T11:01:27.840Z,102192.60
2023-01-26T11:04:06.573Z,102191.40
2023-01-26T11:06:35.477Z,102187.40
2023-01-26T11:09:15.430Z,102183.40
2023-01-26T11:12:02.402Z,102182.80
2023-01-26T11:14:32.377Z,102186.60
2023-01-26T11:17:22.918Z,102186.60
2023-01-26T11:20:40.896Z,102183.60
2023-01-26T11:24:02.503Z,102187.40
2023-01-26T11:27:12.890Z,102185.20
2023-01-26T11:30:11.991Z,102180.80
2023-01-26T11:33:04.811Z,102181.00
2023-01-26T11:35:54.165Z,102171.00
2023-01-26T11:38:45.810Z,102176.40
2023-01-26T11:41:22.542Z,102176.00
2023-01-26T11:44:25.623Z,102168.00
2023-01-26T11:47:30.847Z,102167.40
2023-01-26T11:50:30.639Z,102165.60
2023-01-26T11:53:36.623Z,102167.20
2023-01-26T11:56:58.471Z,102171.60
2023-01-26T11:59:38.719Z,102177.40
2023-01-26T12:02:34.325Z,102178.40
2023-01-26T12:05:16.877Z,102181.80
2023-01-26T12:08:12.115Z,102176.40
2023-01-26T12:10:49.238Z,102181.40
2023-01-26T12:13:44.090Z,102182.80
2023-01-26T12:16:30.986Z,102176.80
2023-01-26T12:19:11.558Z,102169.60
2023-01-26T12:21:45.710Z,102160.80
2023-01-26T12:25:00.928Z,102164.60
2023-01-26T12:27:31.215Z,102157.60
2023-01-26T12:30:33.642Z,102151.60
2023-01-26T12:33:01.991Z,102148.60
2023-01-26T12:35:49.388Z,102150.00
2023-01-26T12:38:36.950Z,102154.60
2023-01-26T12:41:42.008Z,102146.00
2023-01-26T12:44:44.390Z,102153.00
2023-01-26T12:47:37.265Z,102147.60
2023-01-26T12:50:43.608Z,102148.40
2023-01-26T12:53:22.427Z,102160.80
2023-01-26T12:56:09.647Z,102157.80
2023-01-26T12:58:47.657Z,102149.80
2023-01-26T13:01:24.511Z,102147.20
2023-01-26T13:04:02.172Z,102142.80
2023-01-26T13:06:30.283Z,102155.20
2023-01-26T13:08:58.120Z,102152.60
2023-01-26T13:11:53.794Z,102153.60
2023-01-26T13:14:43.597Z,102151.60
2023-01-26T13:17:16.005Z,102148.20
2023-01-26T13:19:43.975Z,102152.20
2023-01-26T13:22:24.062Z,102148.20
2023-01-26T13:24:59.618Z,102145.40
2023-01-26T13:27:39.373Z,102146.00
2023-01-26T13:30:22.637Z,102143.40
2023-01-26T13:33:05.156Z,102139.20
2023-01-26T13:35:35.684Z,102150.00
2023-01-26T13:38:17.508Z,102146.80
2023-01-26T13:40:50.316Z,102141.40
2023-01-26T13:43:32.941Z,102143.80
2023-01-26T13:46:26.949Z,102150.80
2023-01-26T13:48:57.198Z,102152.40
2023-01-26T13:51:29.919Z,102140.40
2023-01-26T13:54:10.994Z,102139.00
2023-01-26T13:56:42.568Z,102137.20
2023-01-26T13:59:19.701Z,102143.00
2023-01-26T14:01:51.262Z,102143.60
2023-01-26T14:04:31.352Z,102144.60
2023-01-26T14:07:05.474Z,102141.60
2023-01-26T14:09:47.852Z,102142.60
2023-01-26T14:12:27.819Z,102139.60
2023-01-26T14:15:00.624Z,102143.40
2023-01-26T14:17:33.085Z,102141.80
2023-01-26T14:20:03.917Z,102136.20
2023-01-26T14:22:31.740Z,102145.40
2023-01-26T14:24:59.641Z,102148.00
2023-01-26T14:27:42.548Z,102138.40
2023-01-26T14:30:23.029Z,102143.80
2023-01-26T14:33:04.195Z,102147.40
2023-01-26T14:35:32.777Z,102148.80
2023-01-26T14:38:17.981Z,102150.60
2023-01-26T14:40:52.384Z,102161.20
2023-01-26T14:43:21.455Z,102165.20
2023-01-26T14:45:56.830Z,102159.40
2023-01-26T14:48:34.522Z,102159.00
2023-01-26T14:51:07.072Z,102150.00
2023-01-26T14:53:35.014Z,102158.00
2023-01-26T14:56:02.897Z,102163.00
2023-01-26T14:58:33.858Z,102162.20
2023-01-26T15:01:03.672Z,102160.60
2023-01-26T15:03:38.999Z,102171.60
2023-01-26T15:06:29.336Z,102173.80
2023-01-26T15:09:04.160Z,102164.40
2023-01-26T15:11:59.077Z,102161.80
2023-01-26T15:14:49.249Z,102159.60
2023-01-26T15:17:30.707Z,102163.00
2023-01-26T15:19:58.586Z,102165.20
2023-01-26T15:22:27.235Z,102163.60
2023-01-26T15:25:23.476Z,102164.40
2023-01-26T15:27:58.288Z,102167.60
2023-01-26T15:30:32.950Z,102170.80
2023-01-26T15:33:02.347Z,102167.80
2023-01-26T15:35:34.298Z,102170.40
2023-01-26T15:38:13.557Z,102170.80
2023-01-26T15:40:41.500Z,102166.60
2023-01-26T15:43:16.415Z,102172.20
2023-01-26T15:45:57.248Z,102172.60
2023-01-26T15:48:26.885Z,102178.00
2023-01-26T15:50:54.729Z,102182.60
2023-01-26T15:53:23.404Z,102180.00
2023-01-26T15:55:53.018Z,102178.40
2023-01-26T15:58:22.244Z,102175.80
2023-01-26T16:00:51.053Z,102180.60
2023-01-26T16:03:22.345Z,102174.60
2023-01-26T16:05:50.372Z,102172.00
2023-01-26T16:08:19.970Z,102171.40
2023-01-26T16:10:48.505Z,102174.20
2023-01-26T16:13:19.242Z,102179.00
2023-01-26T16:15:53.270Z,102177.00
2023-01-26T16:18:21.294Z,102185.20
2023-01-26T16:20:50.306Z,102188.00
2023-01-26T16:23:27.407Z,102188.80
2023-01-26T16:25:56.004Z,102187.60
2023-01-26T16:28:23.918Z,102193.00
2023-01-26T16:30:51.849Z,102190.40
2023-01-26T16:33:24.724Z,102189.20
2023-01-26T16:35:53.566Z,102198.20
2023-01-26T16:38:21.378Z,102206.40
2023-01-26T16:40:49.770Z,102210.80
2023-01-26T16:43:25.169Z,102210.40
2023-01-26T16:45:53.162Z,102213.80
2023-01-26T16:48:22.794Z,102206.20
2023-01-26T16:50:53.843Z,102203.40
2023-01-26T16:53:35.930Z,102199.80
2023-01-26T16:56:04.153Z,102205.80
2023-01-26T16:58:33.304Z,102206.80
2023-01-26T17:01:01.280Z,102212.00
2023-01-26T17:03:29.402Z,102209.60
2023-01-26T17:05:57.744Z,102213.20
2023-01-26T17:08:25.609Z,102195.60
2023-01-26T17:11:01.937Z,102197.40
2023-01-26T17:13:31.618Z,102199.40
2023-01-26T17:15:59.772Z,102196.60
2023-01-26T17:18:27.745Z,102193.40
2023-01-26T17:21:03.133Z,102193.40
2023-01-26T17:23:31.502Z,102192.40
2023-01-26T17:26:00.750Z,102194.60
2023-01-26T17:28:28.785Z,102196.60
2023-01-26T17:30:57.849Z,102192.80
2023-01-26T17:33:29.878Z,102199.60
2023-01-26T17:36:02.110Z,102198.00
2023-01-26T17:38:30.290Z,102199.20
2023-01-26T17:40:59.231Z,102207.80
2023-01-26T17:43:27.641Z,102210.20
2023-01-26T17:46:08.756Z,102214.00
2023-01-26T17:48:37.796Z,102214.00
2023-01-26T17:51:11.129Z,102221.60
2023-01-26T17:53:41.308Z,102217.60
2023-01-26T17:56:13.151Z,102223.80
2023-01-26T17:58:41.608Z,102220.80
2023-01-26T18:01:10.369Z,102229.80
2023-01-26T18:03:43.173Z,102223.20
2023-01-26T18:06:12.241Z,102228.00
2023-01-26T18:08:40.804Z,102226.60
2023-01-26T18:11:14.146Z,102228.40
2023-01-26T18:13:42.786Z,102232.20
2023-01-26T18:16:16.092Z,102238.20
2023-01-26T18:18:44.370Z,102237.40
2023-01-26T18:21:24.906Z,102233.60
2023-01-26T18:23:56.111Z,102235.00
2023-01-26T18:26:28.188Z,102238.40
2023-01-26T18:28:55.968Z,102239.80
2023-01-26T18:31:30.226Z,102238.80
2023-01-26T18:34:01.100Z,102234.40
2023-01-26T18:36:29.908Z,102231.60
2023-01-26T18:39:06.893Z,102236.80
2023-01-26T18:41:35.304Z,102229.40
2023-01-26T18:44:03.920Z,102230.00
2023-01-26T18:46:31.970Z,102230.80
2023-01-26T18:49:03.679Z,102232.60
2023-01-26T18:51:35.502Z,102241.60
2023-01-26T18:54:04.845Z,102239.00
2023-01-26T18:56:33.727Z,102238.20
2023-01-26T18:59:01.988Z,102237.00
2023-01-26T19:01:29.993Z,102240.00
2023-01-26T19:03:58.981Z,102237.00
2023-01-26T19:06:28.788Z,102238.60
2023-01-26T19:09:01.365Z,102245.40
2023-01-26T19:11:33.571Z,102244.00
2023-01-26T19:14:03.233Z,102247.60
2023-01-26T19:16:31.964Z,102241.20
2023-01-26T19:18:59.962Z,102241.20
2023-01-26T19:21:28.577Z,102232.00
2023-01-26T19:24:05.669Z,102231.40
2023-01-26T19:26:34.198Z,102223.40
2023-01-26T19:29:02.330Z,102219.20
2023-01-26T19:31:30.831Z,102222.80
2023-01-26T19:34:07.823Z,102225.20
2023-01-26T19:36:36.995Z,102227.80
2023-01-26T19:39:06.297Z,102230.40
2023-01-26T19:41:34.999Z,102229.20
2023-01-26T19:44:02.864Z,102235.00
2023-01-26T19:46:31.029Z,102233.40
2023-01-26T19:48:58.981Z,102238.80
2023-01-26T19:51:28.107Z,102235.40
2023-01-26T19:53:58.590Z,102234.80
2023-01-26T19:56:30.620Z,102243.60
2023-01-26T19:59:02.826Z,102243.60
2023-01-26T20:01:32.308Z,102242.00
2023-01-26T20:04:04.991Z,102247.80
2023-01-26T20:06:35.803Z,102239.80
2023-01-26T20:09:07.055Z,102240.00
2023-01-26T20:11:35.847Z,102231.00
2023-01-26T20:14:11.169Z,102236.40
2023-01-26T20:16:39.689Z,102230.40
2023-01-26T20:19:07.675Z,102226.80
2023-01-26T20:21:35.954Z,102228.60
2023-01-26T20:24:05.985Z,102234.00
2023-01-26T20:26:35.988Z,102227.20
2023-01-26T20:29:05.174Z,102226.40
2023-01-26T20:31:33.332Z,102232.40
2023-01-26T20:34:02.531Z,102233.00
2023-01-26T20:36:31.740Z,102240.80
2023-01-26T20:39:00.227Z,102237.00
2023-01-26T20:41:30.814Z,102238.40
2023-01-26T20:44:03.290Z,102238.40
2023-01-26T20:46:41.865Z,102239.60
2023-01-26T20:49:17.212Z,102238.00
2023-01-26T20:51:46.256Z,102234.40
2023-01-26T20:54:16.674Z,102235.00
2023-01-26T20:56:49.881Z,102235.00
2023-01-26T20:59:19.079Z,102235.00
2023-01-26T21:01:47.103Z,102239.20
2023-01-26T21:04:14.970Z,102240.80
2023-01-26T21:06:43.136Z,102244.40
2023-01-26T21:09:12.884Z,102243.00
2023-01-26T21:11:41.102Z,102238.60
2023-01-26T21:14:13.679Z,102244.00
2023-01-26T21:16:42.350Z,102259.80
2023-01-26T21:19:10.805Z,102256.20
2023-01-26T21:21:39.129Z,102255.60
2023-01-26T21:24:07.583Z,102259.20
2023-01-26T21:26:35.557Z,102260.40
2023-01-26T21:29:05.442Z,102265.40
2023-01-26T21:31:34.573Z,102272.00
2023-01-26T21:34:02.653Z,102269.60
2023-01-26T21:36:32.552Z,102276.00
2023-01-26T21:39:01.435Z,102272.80
2023-01-26T21:41:51.712Z,102270.20
2023-01-26T21:44:24.857Z,102273.20
2023-01-26T21:47:00.142Z,102271.40
2023-01-26T21:49:29.480Z,102273.80
2023-01-26T21:52:16.615Z,102267.20
2023-01-26T21:54:44.481Z,102268.00
2023-01-26T21:57:30.869Z,102261.00
2023-01-26T21:59:59.045Z,102265.60
2023-01-26T22:02:27.140Z,102262.40
2023-01-26T22:04:55.112Z,102264.00
2023-01-26T22:07:23.027Z,102258.20
2023-01-26T22:09:50.902Z,102264.00
2023-01-26T22:12:18.919Z,102272.20
2023-01-26T22:14:46.748Z,102281.40
2023-01-26T22:17:14.560Z,102277.80
2023-01-26T22:19:42.527Z,102280.80
2023-01-26T22:22:10.775Z,102273.00
2023-01-26T22:24:39.150Z,102268.20
2023-01-26T22:27:08.374Z,102274.00
2023-01-26T22:29:36.788Z,102272.40
2023-01-26T22:32:05.355Z,102269.00
2023-01-26T22:34:33.501Z,102270.80
2023-01-26T22:37:01.502Z,102265.00
2023-01-26T22:39:29.414Z,102260.80
2023-01-26T22:41:57.323Z,102265.80
2023-01-26T22:44:25.122Z,102265.60
2023-01-26T22:46:52.914Z,102265.40
2023-01-26T22:49:20.838Z,102257.00
2023-01-26T22:51:48.728Z,102255.40
2023-01-26T22:54:16.493Z,102264.80
2023-01-26T22:56:44.312Z,102258.80
2023-01-26T22:59:12.168Z,102251.20
2023-01-26T23:01:40.175Z,102253.20
2023-01-26T23:04:08.777Z,102252.60
2023-01-26T23:06:36.672Z,102245.00
2023-01-26T23:09:04.779Z,102239.40
2023-01-26T23:11:32.781Z,102239.40
2023-01-26T23:14:00.927Z,102227.60
2023-01-26T23:16:30.072Z,102234.40
2023-01-26T23:18:59.872Z,102230.40
2023-01-26T23:21:29.963Z,102225.80
2023-01-26T23:23:58.603Z,102220.20
2023-01-26T23:26:26.981Z,102218.40
2023-01-26T23:28:55.028Z,102215.00
2023-01-26T23:31:23.163Z,102212.40
2023-01-26T23:33:51.196Z,102206.40
2023-01-26T23:36:20.589Z,102198.20
2023-01-26T23:38:48.663Z,102192.20
2023-01-26T23:41:17.449Z,102189.00
2023-01-26T23:43:45.787Z,102190.00
2023-01-26T23:46:13.826Z,102197.80
2023-01-26T23:48:42.311Z,102197.00
2023-01-26T23:51:13.589Z,102186.00
2023-01-26T23:53:41.657Z,102187.00
2023-01-26T23:59:45.564Z,102175.80
